createdAt,value
2022-08-26T00:01:56.396Z,16.20
2022-08-26T00:04:26.267Z,16.90
2022-08-26T00:06:55.531Z,15.10
2022-08-26T00:09:24.647Z,13.80
2022-08-26T00:11:52.078Z,12.80
2022-08-26T00:14:19.351Z,14.80
2022-08-26T00:16:47.887Z,12.90
2022-08-26T00:19:15.050Z,15.10
2022-08-26T00:21:41.966Z,19.90
2022-08-26T00:24:13.203Z,13.60
2022-08-26T00:26:41.345Z,17.10
2022-08-26T00:29:08.395Z,13.60
2022-08-26T00:31:36.508Z,16.70
2022-08-26T00:34:04.396Z,16.00
2022-08-26T00:36:32.524Z,16.30
2022-08-26T00:38:59.491Z,12.90
2022-08-26T00:41:26.663Z,13.10
2022-08-26T00:43:54.602Z,12.80
2022-08-26T00:46:29.187Z,14.40
2022-08-26T00:49:02.980Z,12.30
2022-08-26T00:51:34.230Z,12.70
2022-08-26T00:54:06.036Z,14.10
2022-08-26T00:56:57.658Z,14.70
2022-08-26T00:59:29.138Z,14.60
2022-08-26T01:02:00.466Z,13.40
2022-08-26T01:04:31.385Z,16.80
2022-08-26T01:06:58.871Z,16.30
2022-08-26T01:09:26.102Z,13.70
2022-08-26T01:11:55.886Z,15.30
2022-08-26T01:14:26.798Z,14.90
2022-08-26T01:16:54.469Z,14.30
2022-08-26T01:19:33.232Z,14.80
2022-08-26T01:22:05.455Z,14.30
2022-08-26T01:24:32.485Z,20.00
2022-08-26T01:27:05.235Z,17.70
2022-08-26T01:29:34.112Z,13.30
2022-08-26T01:32:02.824Z,13.20
2022-08-26T01:34:36.081Z,16.90
2022-08-26T01:37:16.045Z,16.70
2022-08-26T01:39:47.049Z,18.10
2022-08-26T01:42:16.367Z,18.30
2022-08-26T01:44:51.425Z,15.30
2022-08-26T01:47:20.384Z,18.90
2022-08-26T01:49:50.795Z,18.50
2022-08-26T01:52:24.115Z,17.70
2022-08-26T01:54:57.205Z,16.30
2022-08-26T01:57:24.897Z,17.00
2022-08-26T01:59:54.611Z,15.90
2022-08-26T02:02:23.038Z,15.70
2022-08-26T02:04:57.344Z,14.90
2022-08-26T02:07:26.854Z,15.60
2022-08-26T02:09:54.757Z,13.80
2022-08-26T02:12:21.918Z,17.60
2022-08-26T02:14:53.283Z,15.80
2022-08-26T02:17:25.551Z,14.50
2022-08-26T02:19:53.107Z,20.90
2022-08-26T02:22:22.590Z,13.60
2022-08-26T02:24:57.973Z,19.40
2022-08-26T02:27:36.247Z,15.30
2022-08-26T02:30:31.925Z,17.30
2022-08-26T02:33:01.466Z,14.60
2022-08-26T02:35:28.795Z,14.30
2022-08-26T02:37:57.512Z,13.10
2022-08-26T02:40:30.565Z,20.90
2022-08-26T02:42:58.442Z,17.30
2022-08-26T02:45:28.942Z,18.60
2022-08-26T02:47:58.655Z,14.90
2022-08-26T02:50:27.162Z,19.70
2022-08-26T02:52:54.277Z,16.10
2022-08-26T02:55:21.448Z,14.90
2022-08-26T02:57:52.404Z,15.90
2022-08-26T03:00:19.800Z,15.40
2022-08-26T03:02:46.712Z,18.20
2022-08-26T03:05:13.498Z,17.60
2022-08-26T03:07:41.902Z,15.60
2022-08-26T03:10:09.551Z,15.60
2022-08-26T03:12:37.003Z,16.30
2022-08-26T03:15:17.569Z,18.30
2022-08-26T03:17:47.179Z,15.40
2022-08-26T03:20:15.765Z,14.70
2022-08-26T03:22:45.237Z,18.00
2022-08-26T03:25:15.167Z,21.50
2022-08-26T03:27:43.082Z,17.90
2022-08-26T03:30:30.386Z,18.70
2022-08-26T03:32:57.649Z,14.90
2022-08-26T03:35:25.733Z,18.20
2022-08-26T03:37:53.306Z,16.40
2022-08-26T03:40:20.896Z,14.40
2022-08-26T03:42:49.706Z,16.10
2022-08-26T03:45:18.100Z,17.70
2022-08-26T03:47:46.042Z,16.40
2022-08-26T03:50:15.715Z,16.00
2022-08-26T03:52:44.147Z,15.40
2022-08-26T03:55:11.713Z,16.40
2022-08-26T03:57:38.550Z,17.70
2022-08-26T04:00:08.804Z,18.50
2022-08-26T04:02:35.932Z,15.90
2022-08-26T04:05:03.256Z,17.50
2022-08-26T04:07:32.058Z,17.50
2022-08-26T04:10:00.285Z,19.10
2022-08-26T04:12:30.153Z,16.00
2022-08-26T04:14:57.194Z,15.50
2022-08-26T04:17:26.173Z,23.20
2022-08-26T04:19:54.063Z,16.60
2022-08-26T04:22:24.075Z,17.00
2022-08-26T04:24:52.603Z,15.00
2022-08-26T04:27:19.899Z,14.60
2022-08-26T04:29:47.974Z,26.70
2022-08-26T04:32:16.488Z,17.10
2022-08-26T04:34:45.015Z,14.30
2022-08-26T04:37:13.134Z,20.50
2022-08-26T04:39:40.825Z,24.50
2022-08-26T04:42:07.906Z,15.60
2022-08-26T04:44:37.216Z,21.50
2022-08-26T04:47:04.703Z,20.80
2022-08-26T04:49:35.461Z,17.00
2022-08-26T04:52:06.138Z,18.80
2022-08-26T04:54:34.935Z,17.00
2022-08-26T04:57:02.600Z,21.40
2022-08-26T04:59:29.720Z,17.60
2022-08-26T05:01:57.245Z,17.40
2022-08-26T05:04:24.380Z,17.20
2022-08-26T05:06:55.670Z,20.10
2022-08-26T05:09:25.379Z,16.40
2022-08-26T05:11:52.515Z,19.80
2022-08-26T05:14:22.175Z,17.00
2022-08-26T05:16:49.498Z,19.10
2022-08-26T05:19:18.728Z,18.40
2022-08-26T05:21:47.690Z,19.80
2022-08-26T05:24:14.994Z,16.90
2022-08-26T05:26:42.149Z,16.90
2022-08-26T05:29:12.097Z,16.80
2022-08-26T05:31:38.885Z,19.10
2022-08-26T05:34:07.041Z,19.80
2022-08-26T05:36:36.972Z,16.70
2022-08-26T05:39:06.714Z,13.90
2022-08-26T05:41:38.615Z,18.00
2022-08-26T05:44:08.836Z,16.90
2022-08-26T05:46:36.688Z,15.10
2022-08-26T05:49:04.865Z,16.70
2022-08-26T05:51:33.290Z,16.10
2022-08-26T05:54:02.049Z,26.00
2022-08-26T05:56:31.084Z,18.00
2022-08-26T05:58:59.753Z,15.70
2022-08-26T06:01:30.238Z,18.30
2022-08-26T06:04:00.718Z,17.80
2022-08-26T06:06:33.452Z,17.80
2022-08-26T06:09:02.856Z,22.10
2022-08-26T06:11:32.392Z,26.80
2022-08-26T06:14:03.492Z,24.30
2022-08-26T06:16:31.170Z,24.70
2022-08-26T06:18:58.264Z,19.40
2022-08-26T06:21:28.222Z,22.00
2022-08-26T06:24:19.720Z,20.70
2022-08-26T06:26:53.974Z,16.80
2022-08-26T06:29:24.902Z,20.00
2022-08-26T06:31:56.341Z,17.80
2022-08-26T06:34:29.921Z,16.90
2022-08-26T06:37:01.863Z,20.00
2022-08-26T06:39:30.595Z,16.80
2022-08-26T06:41:58.895Z,20.80
2022-08-26T06:44:26.900Z,24.30
2022-08-26T06:46:54.147Z,21.10
2022-08-26T06:49:26.702Z,17.70
2022-08-26T06:51:54.737Z,19.10
2022-08-26T06:54:22.326Z,20.90
2022-08-26T06:56:50.962Z,18.30
2022-08-26T06:59:18.014Z,21.50
2022-08-26T07:01:45.134Z,19.00
2022-08-26T07:04:21.912Z,19.60
2022-08-26T07:06:52.936Z,26.50
2022-08-26T07:09:22.789Z,21.00
2022-08-26T07:11:51.558Z,24.40
2022-08-26T07:14:19.359Z,20.70
2022-08-26T07:16:50.122Z,20.60
2022-08-26T07:19:30.481Z,19.30
2022-08-26T07:22:02.288Z,19.40
2022-08-26T07:24:31.042Z,18.20
2022-08-26T07:27:02.846Z,24.50
2022-08-26T07:29:30.904Z,24.60
2022-08-26T07:31:58.356Z,25.40
2022-08-26T07:34:25.584Z,20.40
2022-08-26T07:36:53.602Z,23.30
2022-08-26T07:39:22.063Z,21.20
2022-08-26T07:41:48.653Z,25.60
2022-08-26T07:44:16.733Z,22.70
2022-08-26T07:46:44.358Z,18.30
2022-08-26T07:49:20.069Z,22.60
2022-08-26T07:51:47.084Z,19.20
2022-08-26T07:54:14.053Z,18.20
2022-08-26T07:56:41.537Z,20.10
2022-08-26T07:59:13.520Z,15.40
2022-08-26T08:01:41.501Z,18.30
2022-08-26T08:04:14.040Z,18.60
2022-08-26T08:06:41.240Z,20.00
2022-08-26T08:09:12.229Z,20.40
2022-08-26T08:11:42.305Z,17.40
2022-08-26T08:14:11.825Z,18.20
2022-08-26T08:16:45.922Z,17.20
2022-08-26T08:19:13.756Z,23.80
2022-08-26T08:21:41.954Z,19.80
2022-08-26T08:24:12.365Z,17.60
2022-08-26T08:26:42.807Z,18.20
2022-08-26T08:29:09.889Z,18.50
2022-08-26T08:34:25.811Z,20.30
2022-08-26T08:36:53.666Z,20.90
2022-08-26T08:39:22.210Z,17.50
2022-08-26T08:42:05.916Z,22.80
2022-08-26T08:44:34.486Z,24.80
2022-08-26T08:47:14.415Z,20.10
2022-08-26T08:49:44.544Z,19.90
2022-08-26T08:52:22.088Z,21.90
2022-08-26T08:54:48.968Z,22.90
2022-08-26T08:57:26.006Z,22.40
2022-08-26T09:00:08.992Z,25.00
2022-08-26T09:02:47.773Z,23.50
2022-08-26T09:05:23.094Z,22.80
2022-08-26T09:07:56.064Z,22.50
2022-08-26T09:10:25.850Z,21.30
2022-08-26T09:12:53.081Z,21.40
2022-08-26T09:15:33.442Z,19.00
2022-08-26T09:18:19.504Z,20.10
2022-08-26T09:21:06.407Z,22.50
2022-08-26T09:23:37.623Z,20.50
2022-08-26T09:26:18.496Z,23.20
2022-08-26T09:29:03.664Z,15.60
2022-08-26T09:31:34.099Z,24.30
2022-08-26T09:34:17.454Z,22.00
2022-08-26T09:36:55.886Z,16.10
2022-08-26T09:39:28.392Z,23.10
2022-08-26T09:42:12.825Z,18.80
2022-08-26T09:45:00.247Z,17.60
2022-08-26T09:47:37.092Z,19.80
2022-08-26T09:50:22.950Z,16.70
2022-08-26T09:53:25.336Z,16.50
2022-08-26T09:56:25.773Z,19.20
2022-08-26T09:58:55.588Z,16.00
2022-08-26T10:01:32.153Z,17.30
2022-08-26T10:04:13.924Z,18.70
2022-08-26T10:07:00.758Z,20.10
2022-08-26T10:09:31.154Z,19.00
2022-08-26T10:12:02.674Z,19.20
2022-08-26T10:14:48.106Z,17.80
2022-08-26T10:17:29.159Z,15.40
2022-08-26T10:20:06.591Z,18.70
2022-08-26T10:23:09.709Z,18.30
2022-08-26T10:25:53.685Z,19.60
2022-08-26T10:29:07.940Z,16.60
2022-08-26T10:31:40.958Z,16.40
2022-08-26T10:34:12.338Z,14.50
2022-08-26T10:37:13.435Z,18.00
2022-08-26T10:39:57.139Z,20.40
2022-08-26T10:42:38.643Z,16.90
2022-08-26T10:45:15.273Z,17.70
2022-08-26T10:48:05.263Z,17.40
2022-08-26T10:50:35.071Z,19.40
2022-08-26T10:53:32.521Z,19.00
2022-08-26T10:57:09.603Z,19.40
2022-08-26T10:59:39.452Z,18.40
2022-08-26T11:02:15.004Z,18.80
2022-08-26T11:04:48.707Z,22.50
2022-08-26T11:07:36.763Z,30.90
2022-08-26T11:10:06.823Z,26.00
2022-08-26T11:12:36.375Z,22.70
2022-08-26T11:15:24.564Z,26.40
2022-08-26T11:17:51.852Z,30.00
2022-08-26T11:20:27.757Z,28.40
2022-08-26T11:22:56.086Z,30.60
2022-08-26T11:25:29.929Z,16.40
2022-08-26T11:28:00.688Z,21.10
2022-08-26T11:30:58.077Z,22.80
2022-08-26T11:33:47.806Z,21.50
2022-08-26T11:36:59.987Z,23.60
2022-08-26T11:39:53.867Z,28.70
2022-08-26T11:42:46.416Z,23.30
2022-08-26T11:45:28.417Z,24.30
2022-08-26T11:47:55.220Z,21.60
2022-08-26T11:50:26.217Z,24.30
2022-08-26T11:52:55.793Z,25.50
2022-08-26T11:55:24.138Z,19.30
2022-08-26T11:57:57.545Z,18.70
2022-08-26T12:00:33.749Z,22.90
2022-08-26T12:03:07.559Z,16.90
2022-08-26T12:05:44.899Z,17.10
2022-08-26T12:08:16.515Z,23.20
2022-08-26T12:10:44.314Z,17.50
2022-08-26T12:13:22.342Z,20.40
2022-08-26T12:15:57.910Z,23.00
2022-08-26T12:18:36.369Z,20.20
2022-08-26T12:21:16.165Z,16.10
2022-08-26T12:23:47.759Z,14.50
2022-08-26T12:26:29.496Z,17.00
2022-08-26T12:29:20.281Z,16.60
2022-08-26T12:31:53.383Z,20.60
2022-08-26T12:34:20.186Z,15.00
2022-08-26T12:36:55.019Z,19.00
2022-08-26T12:39:34.050Z,18.50
2022-08-26T12:42:03.220Z,17.50
2022-08-26T12:44:42.070Z,20.70
2022-08-26T12:47:42.515Z,15.50
2022-08-26T12:50:15.161Z,14.50
2022-08-26T12:53:10.851Z,19.30
2022-08-26T12:55:54.090Z,15.80
2022-08-26T12:58:28.706Z,13.50
2022-08-26T13:01:08.374Z,19.10
2022-08-26T13:03:35.584Z,16.00
2022-08-26T13:06:15.783Z,16.80
2022-08-26T13:08:51.508Z,16.40
2022-08-26T13:11:40.674Z,17.20
2022-08-26T13:14:23.851Z,16.20
2022-08-26T13:16:51.778Z,17.10
2022-08-26T13:19:22.035Z,14.80
2022-08-26T13:22:07.827Z,10.70
2022-08-26T13:24:38.414Z,15.90
2022-08-26T13:27:06.998Z,12.90
2022-08-26T13:29:34.091Z,13.30
2022-08-26T13:32:01.802Z,12.60
2022-08-26T13:34:29.919Z,13.70
2022-08-26T13:36:58.243Z,11.30
2022-08-26T13:39:25.853Z,13.60
2022-08-26T13:41:53.353Z,12.60
2022-08-26T13:44:20.086Z,12.80
2022-08-26T13:46:47.238Z,14.70
2022-08-26T13:49:14.368Z,13.90
2022-08-26T13:51:42.108Z,13.00
2022-08-26T13:54:09.092Z,13.20
2022-08-26T13:56:36.358Z,14.90
2022-08-26T13:59:06.401Z,15.10
2022-08-26T14:01:33.772Z,14.00
2022-08-26T14:04:00.763Z,17.40
2022-08-26T14:06:27.712Z,13.40
2022-08-26T14:08:54.865Z,13.40
2022-08-26T14:11:23.081Z,19.80
2022-08-26T14:13:50.246Z,9.60
2022-08-26T14:16:27.420Z,13.00
2022-08-26T14:18:54.715Z,9.30
2022-08-26T14:21:21.480Z,10.70
2022-08-26T14:23:48.704Z,14.70
2022-08-26T14:26:19.028Z,14.00
2022-08-26T14:28:58.032Z,13.10
2022-08-26T14:31:26.910Z,14.30
2022-08-26T14:33:56.681Z,11.80
2022-08-26T14:36:29.448Z,12.10
2022-08-26T14:39:00.926Z,14.10
2022-08-26T14:41:29.047Z,17.50
2022-08-26T14:44:00.252Z,10.90
2022-08-26T14:46:30.181Z,13.50
2022-08-26T14:49:03.531Z,12.70
2022-08-26T14:51:32.191Z,13.80
2022-08-26T14:54:14.536Z,15.20
2022-08-26T14:56:58.617Z,15.30
2022-08-26T14:59:28.588Z,12.50
2022-08-26T15:01:56.569Z,14.80
2022-08-26T15:04:24.594Z,13.40
2022-08-26T15:06:53.732Z,10.70
2022-08-26T15:09:21.540Z,13.70
2022-08-26T15:11:48.583Z,12.20
2022-08-26T15:14:19.835Z,14.60
2022-08-26T15:16:52.573Z,10.50
2022-08-26T15:19:20.527Z,12.80
2022-08-26T15:21:48.433Z,12.00
2022-08-26T15:24:17.916Z,11.50
2022-08-26T15:26:45.824Z,9.60
2022-08-26T15:29:13.759Z,14.20
2022-08-26T15:31:40.851Z,9.30
2022-08-26T15:34:13.326Z,12.70
2022-08-26T15:36:44.890Z,14.10
2022-08-26T15:39:13.206Z,13.20
2022-08-26T15:41:41.345Z,9.20
2022-08-26T15:44:08.544Z,13.20
2022-08-26T15:46:37.526Z,14.30
2022-08-26T15:49:06.709Z,12.30
2022-08-26T15:51:45.735Z,8.10
2022-08-26T15:54:13.709Z,10.20
2022-08-26T15:56:40.559Z,9.80
2022-08-26T15:59:08.124Z,9.00
2022-08-26T16:01:35.979Z,7.40
2022-08-26T16:04:04.135Z,8.70
2022-08-26T16:06:33.201Z,10.80
2022-08-26T16:09:00.678Z,11.50
2022-08-26T16:11:28.483Z,10.80
2022-08-26T16:13:55.342Z,12.20
2022-08-26T16:16:22.614Z,10.80
2022-08-26T16:19:25.047Z,14.40
2022-08-26T16:21:52.087Z,9.50
2022-08-26T16:24:28.452Z,11.30
2022-08-26T16:26:56.895Z,11.10
2022-08-26T16:29:24.530Z,12.00
2022-08-26T16:31:53.326Z,13.10
2022-08-26T16:34:20.772Z,18.20
2022-08-26T16:36:47.651Z,10.90
2022-08-26T16:39:14.621Z,10.40
2022-08-26T16:41:42.178Z,7.60
2022-08-26T16:44:08.811Z,10.40
2022-08-26T16:46:36.097Z,7.90
2022-08-26T16:49:06.140Z,7.70
2022-08-26T16:51:38.180Z,8.30
2022-08-26T16:54:06.970Z,10.40
2022-08-26T16:56:34.717Z,11.80
2022-08-26T16:59:05.062Z,11.70
2022-08-26T17:01:32.196Z,13.70
2022-08-26T17:03:59.240Z,10.20
2022-08-26T17:06:25.886Z,10.40
2022-08-26T17:08:53.137Z,9.20
2022-08-26T17:11:19.866Z,10.10
2022-08-26T17:13:46.538Z,11.20
2022-08-26T17:16:14.667Z,10.50
2022-08-26T17:18:42.111Z,8.40
2022-08-26T17:21:12.571Z,10.70
2022-08-26T17:23:41.119Z,9.10
2022-08-26T17:26:09.110Z,10.80
2022-08-26T17:28:37.903Z,8.50
2022-08-26T17:31:08.512Z,8.90
2022-08-26T17:33:38.613Z,10.60
2022-08-26T17:36:09.919Z,10.00
2022-08-26T17:38:37.850Z,9.60
2022-08-26T17:41:13.268Z,9.30
2022-08-26T17:43:40.805Z,10.20
2022-08-26T17:46:09.769Z,15.20
2022-08-26T17:48:38.159Z,8.80
2022-08-26T17:51:14.274Z,7.80
2022-08-26T17:53:41.775Z,8.30
2022-08-26T17:56:14.223Z,8.00
2022-08-26T17:58:50.923Z,8.00
2022-08-26T18:01:28.555Z,6.60
2022-08-26T18:04:00.235Z,8.50
2022-08-26T18:06:27.889Z,6.90
2022-08-26T18:08:54.581Z,10.00
2022-08-26T18:11:23.198Z,10.00
2022-08-26T18:13:52.700Z,9.50
2022-08-26T18:16:20.569Z,14.80
2022-08-26T18:18:49.063Z,12.10
2022-08-26T18:21:18.929Z,13.10
2022-08-26T18:23:47.221Z,14.50
2022-08-26T18:26:35.504Z,12.30
2022-08-26T18:29:03.282Z,12.40
2022-08-26T18:31:32.156Z,14.20
2022-08-26T18:34:00.726Z,11.10
2022-08-26T18:36:31.944Z,12.50
2022-08-26T18:38:59.792Z,11.90
2022-08-26T18:41:28.810Z,15.20
2022-08-26T18:44:05.446Z,15.70
2022-08-26T18:46:32.282Z,14.70
2022-08-26T18:49:01.854Z,17.40
2022-08-26T18:51:31.443Z,20.90
2022-08-26T18:54:00.449Z,20.00
2022-08-26T18:56:28.042Z,18.50
2022-08-26T18:58:55.001Z,19.40
2022-08-26T19:01:26.681Z,21.40
2022-08-26T19:03:56.162Z,19.80
2022-08-26T19:06:23.923Z,23.90
2022-08-26T19:08:50.900Z,26.20
2022-08-26T19:11:31.468Z,28.50
2022-08-26T19:14:04.329Z,29.50
2022-08-26T19:16:34.679Z,26.20
2022-08-26T19:19:02.111Z,30.60
2022-08-26T19:21:29.814Z,31.30
2022-08-26T19:23:58.653Z,32.30
2022-08-26T19:26:27.333Z,33.20
2022-08-26T19:28:54.590Z,32.70
2022-08-26T19:31:22.267Z,34.90
2022-08-26T19:33:49.768Z,21.90
2022-08-26T19:36:25.455Z,25.60
2022-08-26T19:38:53.365Z,23.80
2022-08-26T19:41:29.027Z,17.60
2022-08-26T19:44:08.875Z,12.70
2022-08-26T19:46:36.347Z,12.60
2022-08-26T19:49:03.817Z,9.50
2022-08-26T19:51:32.948Z,10.20
2022-08-26T19:54:01.229Z,9.50
2022-08-26T19:56:28.732Z,8.90
2022-08-26T19:58:56.655Z,8.90
2022-08-26T20:01:24.234Z,11.40
2022-08-26T20:03:51.507Z,9.20
2022-08-26T20:06:20.095Z,11.30
2022-08-26T20:08:47.161Z,9.10
2022-08-26T20:11:16.351Z,9.80
2022-08-26T20:13:44.399Z,11.40
2022-08-26T20:16:12.065Z,9.70
2022-08-26T20:18:59.408Z,9.10
2022-08-26T20:21:27.057Z,7.50
2022-08-26T20:24:00.726Z,9.40
2022-08-26T20:26:29.354Z,8.10
2022-08-26T20:28:57.085Z,9.20
2022-08-26T20:31:24.598Z,7.70
2022-08-26T20:33:51.789Z,8.10
2022-08-26T20:36:22.035Z,8.90
2022-08-26T20:38:50.280Z,11.50
2022-08-26T20:41:17.794Z,8.70
2022-08-26T20:43:45.074Z,10.20
2022-08-26T20:46:17.320Z,11.00
2022-08-26T20:48:49.300Z,11.70
2022-08-26T20:51:17.293Z,11.80
2022-08-26T20:53:44.835Z,10.60
2022-08-26T20:56:14.216Z,12.80
2022-08-26T20:58:42.503Z,11.40
2022-08-26T21:01:18.422Z,13.20
2022-08-26T21:03:48.144Z,14.40
2022-08-26T21:06:15.267Z,12.10
2022-08-26T21:08:43.439Z,15.00
2022-08-26T21:11:11.745Z,13.00
2022-08-26T21:14:03.476Z,15.30
2022-08-26T21:16:31.534Z,16.70
2022-08-26T21:19:00.476Z,18.10
2022-08-26T21:21:34.737Z,21.60
2022-08-26T21:24:03.999Z,23.40
2022-08-26T21:26:31.085Z,20.30
2022-08-26T21:28:58.145Z,21.20
2022-08-26T21:31:25.690Z,24.10
2022-08-26T21:33:52.984Z,24.50
2022-08-26T21:36:20.322Z,19.70
2022-08-26T21:38:47.625Z,17.60
2022-08-26T21:41:23.607Z,23.10
2022-08-26T21:43:53.783Z,17.70
2022-08-26T21:46:23.366Z,18.80
2022-08-26T21:49:00.114Z,16.40
2022-08-26T21:51:35.072Z,16.00
2022-08-26T21:54:06.555Z,17.70
2022-08-26T21:56:42.079Z,13.60
2022-08-26T21:59:09.476Z,14.40
2022-08-26T22:01:37.901Z,13.10
2022-08-26T22:04:07.012Z,12.80
2022-08-26T22:06:38.662Z,11.90
2022-08-26T22:09:05.286Z,13.50
2022-08-26T22:11:32.231Z,12.40
2022-08-26T22:13:59.266Z,14.40
2022-08-26T22:16:28.815Z,14.20
2022-08-26T22:18:58.430Z,10.50
2022-08-26T22:21:30.738Z,11.70
2022-08-26T22:23:58.618Z,9.10
2022-08-26T22:26:28.753Z,11.10
2022-08-26T22:28:59.148Z,11.50
2022-08-26T22:31:37.779Z,11.80
2022-08-26T22:34:08.682Z,11.50
2022-08-26T22:36:39.779Z,10.70
2022-08-26T22:39:11.065Z,9.20
2022-08-26T22:41:37.660Z,9.80
2022-08-26T22:44:07.535Z,8.20
2022-08-26T22:46:36.668Z,9.50
2022-08-26T22:49:05.021Z,12.20
2022-08-26T22:51:32.279Z,9.60
2022-08-26T22:53:59.491Z,8.80
2022-08-26T22:56:26.696Z,9.30
2022-08-26T22:58:53.673Z,9.70
2022-08-26T23:01:20.569Z,9.20
2022-08-26T23:03:47.601Z,10.20
2022-08-26T23:06:14.765Z,8.60
2022-08-26T23:08:41.978Z,9.50
2022-08-26T23:11:10.113Z,7.80
2022-08-26T23:13:37.547Z,10.50
2022-08-26T23:16:09.095Z,10.30
2022-08-26T23:18:36.102Z,10.90
2022-08-26T23:21:08.970Z,9.00
2022-08-26T23:23:37.103Z,11.10
2022-08-26T23:26:07.707Z,11.00
2022-08-26T23:28:36.631Z,12.30
2022-08-26T23:31:06.812Z,9.80
2022-08-26T23:33:52.223Z,10.20
2022-08-26T23:36:22.706Z,11.30
2022-08-26T23:38:53.106Z,10.10
2022-08-26T23:41:23.434Z,10.10
2022-08-26T23:43:51.593Z,9.40
2022-08-26T23:46:19.667Z,10.10
2022-08-26T23:48:47.174Z,9.60
2022-08-26T23:51:32.839Z,9.50
2022-08-26T23:53:59.467Z,11.60
2022-08-26T23:56:26.726Z,11.30
2022-08-26T23:58:54.495Z,12.40
